Time;durP1;ratioP1;P1;durP2;ratioP2;P2;SDS_P1;SDS_P2;PMS_P1;PMS_P2;Temp;Humidity;BMP_temperature;BMP_pressure;BME280_temperature;BME280_humidity;BME280_pressure;Samples;Min_cycle;Max_cycle;Signal;HPM_P1;HPM_P2
2022/07/08 00:00:25;;;;;;;10.60;9.70;;;18.60;99.90;;;;;;6220340;28;20229;-66
2022/07/08 00:03:28;;;;;;;11.10;10.30;;;18.50;99.90;;;;;;6223649;28;20276;-66
2022/07/08 00:06:34;;;;;;;11.80;10.90;;;18.40;99.90;;;;;;6221270;28;20225;-65
2022/07/08 00:09:37;;;;;;;10.80;9.77;;;18.40;99.90;;;;;;6218888;28;20233;-65
2022/07/08 00:12:42;;;;;;;12.17;10.93;;;18.30;99.90;;;;;;6223337;28;20243;-66
2022/07/08 00:15:45;;;;;;;10.93;9.93;;;18.20;99.90;;;;;;6229365;28;20486;-66
2022/07/08 00:18:49;;;;;;;10.03;9.33;;;18.30;99.90;;;;;;6229708;28;20272;-65
2022/07/08 00:21:52;;;;;;;9.90;9.20;;;18.40;99.90;;;;;;6229414;28;20236;-65
2022/07/08 00:24:55;;;;;;;10.70;9.70;;;18.40;99.90;;;;;;6228988;28;20807;-65
2022/07/08 00:27:59;;;;;;;8.63;7.87;;;18.50;99.90;;;;;;6228781;28;20228;-65
2022/07/08 00:31:02;;;;;;;9.97;9.17;;;18.50;99.90;;;;;;6228665;28;20574;-65
2022/07/08 00:34:06;;;;;;;8.87;8.17;;;18.60;99.90;;;;;;6246989;28;20233;-65
2022/07/08 00:37:09;;;;;;;10.20;9.37;;;18.60;99.90;;;;;;6252957;28;20543;-65
2022/07/08 00:40:13;;;;;;;10.10;9.30;;;18.60;99.90;;;;;;6252937;28;20260;-66
2022/07/08 00:43:34;;;;;;;9.63;8.93;;;18.60;99.90;;;;;;6253016;28;20547;-66
2022/07/08 00:46:38;;;;;;;9.27;8.37;;;18.60;99.90;;;;;;6252460;28;20232;-66
2022/07/08 00:49:42;;;;;;;9.07;8.47;;;18.60;99.90;;;;;;6251965;28;20228;-65
2022/07/08 00:52:46;;;;;;;8.67;8.07;;;18.70;99.90;;;;;;6251809;28;20235;-65
2022/07/08 00:55:50;;;;;;;8.13;7.53;;;18.70;99.90;;;;;;6251762;28;20544;-65
2022/07/08 00:58:55;;;;;;;8.70;7.97;;;18.70;99.90;;;;;;6227533;28;20237;-64
2022/07/08 01:01:58;;;;;;;8.63;8.00;;;18.60;99.90;;;;;;6227807;28;20201;-65
2022/07/08 01:05:01;;;;;;;9.40;8.60;;;18.60;99.90;;;;;;6227365;28;20572;-64
2022/07/08 01:08:05;;;;;;;8.93;8.23;;;18.60;99.90;;;;;;6226890;28;20344;-64
2022/07/08 01:11:09;;;;;;;7.83;7.23;;;18.60;99.90;;;;;;6227010;28;20205;-64
2022/07/08 01:14:15;;;;;;;8.43;7.77;;;18.70;99.90;;;;;;6227120;28;20237;-64
2022/07/08 01:17:18;;;;;;;8.67;7.63;;;18.80;99.90;;;;;;6227472;28;20236;-65
2022/07/08 01:20:21;;;;;;;8.93;8.23;;;18.80;99.90;;;;;;6226782;28;20248;-66
2022/07/08 01:23:26;;;;;;;9.20;8.40;;;18.70;99.90;;;;;;6229772;28;20243;-65
2022/07/08 01:26:29;;;;;;;9.93;8.80;;;18.70;99.90;;;;;;6244848;28;20233;-65
2022/07/08 01:29:33;;;;;;;9.67;8.77;;;18.60;99.90;;;;;;6225874;28;20229;-65
2022/07/08 01:32:39;;;;;;;9.07;8.30;;;18.60;99.90;;;;;;6231261;28;20471;-65
2022/07/08 01:35:42;;;;;;;9.50;8.47;;;18.60;99.90;;;;;;6250676;28;20254;-65
2022/07/08 01:38:47;;;;;;;9.60;8.70;;;18.50;99.90;;;;;;6250962;28;20667;-65
2022/07/08 01:41:50;;;;;;;8.40;7.60;;;18.50;99.90;;;;;;6250987;28;20221;-64
2022/07/08 01:44:54;;;;;;;8.43;7.73;;;18.50;99.90;;;;;;6250477;28;20229;-64
2022/07/08 01:47:57;;;;;;;9.13;8.33;;;18.50;99.90;;;;;;6248419;28;20224;-64
2022/07/08 01:51:00;;;;;;;9.00;8.30;;;18.60;99.90;;;;;;6250067;28;20351;-64
2022/07/08 01:54:05;;;;;;;7.23;6.63;;;18.50;99.90;;;;;;6251121;28;20227;-64
2022/07/08 01:57:18;;;;;;;5.90;5.50;;;18.50;99.90;;;;;;6250333;28;20232;-65
2022/07/08 02:00:22;;;;;;;6.67;5.97;;;18.30;99.90;;;;;;6251495;28;20229;-65
2022/07/08 02:03:26;;;;;;;6.70;6.20;;;18.20;99.90;;;;;;6251484;28;20236;-65
2022/07/08 02:06:29;;;;;;;7.07;6.40;;;18.20;99.90;;;;;;6250772;28;20224;-64
2022/07/08 02:09:34;;;;;;;6.60;6.07;;;18.20;99.90;;;;;;6251671;28;20479;-64
2022/07/08 02:12:37;;;;;;;5.97;5.33;;;18.30;99.90;;;;;;6251132;28;20698;-65
2022/07/08 02:15:40;;;;;;;6.77;6.20;;;18.40;99.90;;;;;;6251274;28;20240;-65
2022/07/08 02:18:43;;;;;;;6.00;5.50;;;18.40;99.90;;;;;;6250986;28;20244;-65
2022/07/08 02:21:46;;;;;;;6.17;5.67;;;18.50;99.90;;;;;;6241994;28;20598;-64
2022/07/08 02:24:51;;;;;;;5.80;5.30;;;18.40;99.90;;;;;;6250611;28;20236;-65
2022/07/08 02:27:54;;;;;;;5.57;5.10;;;18.40;99.90;;;;;;6250716;28;20478;-65
2022/07/08 02:30:57;;;;;;;5.10;4.77;;;18.30;99.90;;;;;;6250677;28;20228;-65
2022/07/08 02:34:00;;;;;;;4.93;4.53;;;18.20;99.90;;;;;;6250709;28;20236;-65
2022/07/08 02:37:04;;;;;;;5.00;4.60;;;18.20;99.90;;;;;;6250117;28;20471;-65
2022/07/08 02:40:10;;;;;;;4.60;4.07;;;18.10;99.90;;;;;;6250203;28;20244;-64
2022/07/08 02:43:13;;;;;;;4.87;4.57;;;18.10;99.90;;;;;;6250352;28;20236;-64
2022/07/08 02:46:17;;;;;;;4.50;4.20;;;18.00;99.90;;;;;;6250397;28;20477;-64
2022/07/08 02:49:20;;;;;;;4.13;3.83;;;17.90;99.90;;;;;;6250437;28;20236;-64
2022/07/08 02:52:23;;;;;;;4.63;3.67;;;17.90;99.90;;;;;;6249946;28;20475;-64
2022/07/08 02:55:27;;;;;;;3.70;3.50;;;18.00;99.90;;;;;;6250312;28;20228;-64
2022/07/08 02:58:31;;;;;;;4.20;3.17;;;18.10;99.90;;;;;;6250040;28;20246;-64
2022/07/08 03:01:34;;;;;;;3.63;3.33;;;18.20;99.90;;;;;;6250243;28;20311;-63
2022/07/08 03:04:37;;;;;;;3.93;3.07;;;18.20;99.90;;;;;;6249669;28;20243;-63
2022/07/08 03:07:41;;;;;;;3.57;3.27;;;18.20;99.90;;;;;;6249234;28;20485;-63
2022/07/08 03:10:45;;;;;;;3.30;3.10;;;18.10;99.90;;;;;;6248767;28;20700;-64
2022/07/08 03:13:48;;;;;;;3.23;3.03;;;18.10;99.90;;;;;;6249659;28;20243;-64
2022/07/08 03:16:51;;;;;;;3.50;3.20;;;18.10;99.90;;;;;;6225200;28;20463;-64
2022/07/08 03:19:55;;;;;;;5.30;2.97;;;18.10;99.90;;;;;;6248928;28;20228;-64
2022/07/08 03:22:58;;;;;;;2.93;2.70;;;18.20;99.90;;;;;;6220261;28;20221;-64
2022/07/08 03:26:03;;;;;;;3.07;2.77;;;18.20;99.90;;;;;;6226824;28;20278;-64
2022/07/08 03:29:06;;;;;;;2.87;2.63;;;18.30;99.90;;;;;;6249774;28;20227;-64
2022/07/08 03:32:09;;;;;;;2.70;2.50;;;18.30;99.90;;;;;;6249388;28;20216;-64
2022/07/08 03:35:13;;;;;;;4.77;3.00;;;18.30;99.90;;;;;;6248891;28;20462;-64
2022/07/08 03:38:16;;;;;;;3.10;2.90;;;18.30;99.90;;;;;;6248994;28;20701;-63
2022/07/08 03:41:20;;;;;;;3.30;3.03;;;18.30;99.90;;;;;;6249631;28;20482;-63
2022/07/08 03:44:23;;;;;;;2.27;2.10;;;18.30;99.90;;;;;;6249420;28;20224;-64
2022/07/08 03:47:27;;;;;;;2.70;2.50;;;18.20;99.90;;;;;;6252222;28;20221;-64
2022/07/08 03:50:30;;;;;;;2.33;2.23;;;18.20;99.90;;;;;;6253616;28;20247;-64
2022/07/08 03:53:33;;;;;;;2.70;2.50;;;18.20;99.90;;;;;;6254367;28;20467;-64
2022/07/08 03:56:38;;;;;;;2.70;2.50;;;18.20;99.90;;;;;;6254227;28;20236;-64
2022/07/08 03:59:41;;;;;;;2.70;2.50;;;18.20;99.90;;;;;;6254176;28;20229;-64
2022/07/08 04:02:44;;;;;;;2.27;1.97;;;18.20;99.90;;;;;;6254493;28;20224;-64
2022/07/08 04:05:47;;;;;;;2.10;2.00;;;18.00;99.90;;;;;;6253524;28;20225;-64
2022/07/08 04:08:50;;;;;;;3.23;2.90;;;18.00;99.90;;;;;;6254278;28;20246;-63
2022/07/08 04:11:55;;;;;;;2.10;1.83;;;17.90;99.90;;;;;;6254240;28;20487;-63
2022/07/08 04:14:58;;;;;;;1.97;1.87;;;18.00;99.90;;;;;;6253580;28;21269;-64
2022/07/08 04:18:01;;;;;;;1.20;1.10;;;18.00;99.90;;;;;;6253710;28;20481;-64
2022/07/08 04:21:05;;;;;;;1.63;1.53;;;18.00;99.90;;;;;;6253241;28;20471;-64
2022/07/08 04:24:09;;;;;;;4.10;1.93;;;18.00;99.90;;;;;;6252838;28;20797;-64
2022/07/08 04:27:13;;;;;;;1.43;1.33;;;18.00;99.90;;;;;;6253500;28;20477;-64
2022/07/08 04:30:16;;;;;;;2.30;1.50;;;18.00;99.90;;;;;;6252897;28;20978;-65
2022/07/08 04:33:20;;;;;;;1.60;1.30;;;18.10;99.90;;;;;;6253345;28;20495;-64
2022/07/08 04:36:23;;;;;;;1.50;1.40;;;18.00;99.90;;;;;;6253569;28;20463;-64
2022/07/08 04:39:26;;;;;;;1.67;1.57;;;18.00;99.90;;;;;;6252961;28;20331;-64
2022/07/08 04:42:31;;;;;;;1.83;1.20;;;18.00;99.90;;;;;;6253117;28;20471;-64
2022/07/08 04:45:34;;;;;;;5.53;2.83;;;18.00;99.90;;;;;;6252975;28;20494;-65
2022/07/08 04:48:37;;;;;;;1.57;1.47;;;18.00;99.90;;;;;;6252682;28;20475;-64
2022/07/08 04:51:41;;;;;;;2.17;1.70;;;18.00;99.90;;;;;;6252899;28;20235;-64
2022/07/08 04:54:44;;;;;;;1.90;1.73;;;18.00;99.90;;;;;;6253050;28;20972;-63
2022/07/08 04:57:49;;;;;;;4.83;1.80;;;18.00;99.90;;;;;;6251495;28;20475;-64
2022/07/08 05:00:52;;;;;;;3.23;1.33;;;18.00;99.90;;;;;;6252537;28;20488;-63
2022/07/08 05:03:55;;;;;;;2.60;1.73;;;17.90;99.90;;;;;;6252648;28;20471;-63
2022/07/08 05:06:58;;;;;;;1.40;1.30;;;18.00;99.90;;;;;;6252710;28;20232;-63
2022/07/08 05:10:01;;;;;;;2.37;1.60;;;18.00;99.90;;;;;;6252264;28;20960;-63
2022/07/08 05:13:07;;;;;;;1.43;0.97;;;18.20;99.90;;;;;;6252163;28;20236;-63
2022/07/08 05:16:10;;;;;;;5.63;1.80;;;18.30;99.90;;;;;;6251448;28;20845;-63
2022/07/08 05:19:13;;;;;;;1.53;1.37;;;18.50;99.90;;;;;;6250810;28;20471;-63
2022/07/08 05:22:16;;;;;;;1.70;1.60;;;18.70;99.90;;;;;;6251685;28;20224;-63
2022/07/08 05:25:19;;;;;;;1.47;1.03;;;18.90;99.90;;;;;;6252230;28;20228;-63
2022/07/08 05:28:24;;;;;;;3.87;1.90;;;19.00;99.90;;;;;;6252994;28;20240;-63
2022/07/08 05:31:28;;;;;;;2.43;1.93;;;19.00;99.90;;;;;;6252568;28;20581;-62
2022/07/08 05:34:31;;;;;;;5.50;1.97;;;18.90;99.90;;;;;;6243095;28;20733;-62
2022/07/08 05:37:38;;;;;;;3.60;1.60;;;18.80;99.90;;;;;;6251861;28;20684;-63
2022/07/08 05:40:41;;;;;;;2.37;1.30;;;18.80;99.90;;;;;;6251298;28;20232;-63
2022/07/08 05:43:45;;;;;;;2.07;1.13;;;18.80;99.90;;;;;;6251698;28;20648;-63
2022/07/08 05:46:48;;;;;;;1.13;1.03;;;18.70;99.90;;;;;;6251605;28;20247;-63
2022/07/08 05:49:52;;;;;;;1.50;1.40;;;18.70;99.90;;;;;;6251590;28;20240;-63
2022/07/08 05:52:55;;;;;;;3.90;1.53;;;18.80;99.90;;;;;;6251795;28;20669;-63
2022/07/08 05:55:58;;;;;;;1.20;1.10;;;18.90;99.90;;;;;;6251742;28;20754;-63
2022/07/08 05:59:03;;;;;;;2.60;1.47;;;19.00;99.90;;;;;;6251998;28;20369;-63
2022/07/08 06:02:06;;;;;;;1.13;1.10;;;19.00;99.90;;;;;;6251656;28;20197;-63
2022/07/08 06:05:10;;;;;;;2.53;1.40;;;19.10;99.90;;;;;;6248621;28;20267;-63
2022/07/08 06:08:13;;;;;;;2.20;1.47;;;19.10;99.90;;;;;;6251366;28;20240;-63
2022/07/08 06:11:16;;;;;;;2.20;1.50;;;19.30;99.90;;;;;;6251541;28;20228;-63
2022/07/08 06:14:21;;;;;;;2.13;1.57;;;19.40;99.90;;;;;;6251284;28;20562;-63
2022/07/08 06:17:24;;;;;;;3.03;1.73;;;19.50;99.90;;;;;;6251184;28;20251;-63
2022/07/08 06:20:27;;;;;;;1.53;1.43;;;19.60;99.90;;;;;;6251079;28;20228;-63
2022/07/08 06:23:31;;;;;;;3.50;1.70;;;19.70;99.90;;;;;;6250541;28;20228;-62
2022/07/08 06:26:34;;;;;;;3.37;1.50;;;19.70;99.90;;;;;;6250348;28;20266;-62
2022/07/08 06:29:39;;;;;;;5.53;1.40;;;19.80;99.90;;;;;;6250423;28;20228;-63
2022/07/08 06:32:42;;;;;;;4.17;2.07;;;20.00;99.90;;;;;;6250786;28;20232;-63
2022/07/08 06:35:45;;;;;;;1.70;1.37;;;20.00;99.90;;;;;;6246419;28;20224;-63
2022/07/08 06:38:48;;;;;;;1.23;1.13;;;20.10;99.90;;;;;;6250632;28;20237;-64
2022/07/08 06:41:51;;;;;;;1.37;1.20;;;20.30;99.90;;;;;;6250258;28;20239;-64
2022/07/08 06:44:56;;;;;;;1.77;1.67;;;20.40;99.90;;;;;;6250661;28;20547;-63
2022/07/08 06:47:59;;;;;;;2.93;1.17;;;20.60;99.90;;;;;;6250376;28;20228;-64
2022/07/08 06:51:02;;;;;;;2.10;1.03;;;20.70;99.90;;;;;;6250973;28;20227;-64
2022/07/08 06:57:26;;;;;;;2.40;0.90;;;21.70;99.60;;;;;;6250584;28;20239;-63
2022/07/08 07:00:31;;;;;;;1.17;1.03;;;21.80;97.70;;;;;;6250043;28;20232;-62
2022/07/08 07:03:34;;;;;;;1.33;1.20;;;21.80;97.10;;;;;;6250069;28;20228;-62
2022/07/08 07:06:39;;;;;;;1.83;0.80;;;21.80;96.80;;;;;;6249631;28;20228;-62
2022/07/08 07:09:42;;;;;;;1.40;0.97;;;21.90;96.30;;;;;;6250429;28;20228;-62
2022/07/08 07:12:45;;;;;;;2.20;1.10;;;21.90;96.00;;;;;;6250524;28;20238;-62
2022/07/08 07:15:49;;;;;;;2.40;1.17;;;22.10;96.30;;;;;;6250083;28;20302;-63
2022/07/08 07:18:53;;;;;;;2.20;0.97;;;22.30;96.50;;;;;;6250036;28;20240;-63
2022/07/08 07:21:56;;;;;;;3.53;0.93;;;22.30;95.90;;;;;;6249041;28;20232;-63
2022/07/08 07:24:59;;;;;;;1.23;1.00;;;22.20;95.90;;;;;;6249792;28;20232;-63
2022/07/08 07:28:02;;;;;;;1.27;0.90;;;22.20;95.40;;;;;;6249858;28;20236;-64
2022/07/08 07:31:07;;;;;;;2.10;1.00;;;22.10;95.50;;;;;;6250376;28;20238;-64
2022/07/08 07:34:10;;;;;;;0.80;0.60;;;21.90;95.10;;;;;;6250051;28;20224;-64
2022/07/08 07:37:13;;;;;;;1.10;0.57;;;21.80;95.20;;;;;;6249832;28;20606;-63
2022/07/08 07:40:16;;;;;;;0.70;0.40;;;22.00;94.00;;;;;;6249274;28;20233;-63
2022/07/08 07:43:20;;;;;;;1.23;0.30;;;22.50;92.90;;;;;;6245136;28;20319;-63
2022/07/08 07:46:24;;;;;;;0.60;0.37;;;23.00;91.10;;;;;;6249946;28;20242;-64
2022/07/08 07:49:27;;;;;;;1.00;0.40;;;23.20;90.50;;;;;;6250090;28;20294;-63
2022/07/08 07:52:30;;;;;;;0.70;0.40;;;23.30;88.70;;;;;;6249553;28;20230;-64
2022/07/08 07:55:34;;;;;;;0.60;0.40;;;23.30;88.70;;;;;;6245415;28;20227;-64
2022/07/08 07:58:38;;;;;;;0.60;0.30;;;23.50;87.00;;;;;;6218552;28;20539;-64
2022/07/08 08:01:42;;;;;;;0.60;0.30;;;23.80;83.80;;;;;;6224219;28;20638;-64
2022/07/08 08:04:45;;;;;;;0.90;0.30;;;24.40;84.10;;;;;;6224277;28;20221;-64
2022/07/08 08:07:49;;;;;;;1.37;0.37;;;24.90;83.10;;;;;;6248143;28;20239;-64
2022/07/08 08:10:52;;;;;;;2.90;0.40;;;25.60;77.50;;;;;;6249107;28;20232;-64
2022/07/08 08:13:55;;;;;;;0.70;0.30;;;25.70;74.70;;;;;;6224835;28;20831;-66
2022/07/08 08:16:59;;;;;;;0.80;0.50;;;25.50;73.40;;;;;;6250459;28;20219;-67
2022/07/08 08:20:03;;;;;;;0.60;0.40;;;25.60;72.40;;;;;;6250182;28;20693;-64
2022/07/08 08:23:07;;;;;;;2.10;0.57;;;25.50;73.40;;;;;;6249238;28;20343;-65
2022/07/08 08:26:26;;;;;;;0.73;0.30;;;25.60;71.50;;;;;;6249042;28;20258;-63
2022/07/08 08:29:29;;;;;;;1.10;0.50;;;26.00;72.20;;;;;;6249039;28;20526;-64
2022/07/08 08:32:34;;;;;;;1.50;0.37;;;26.10;70.10;;;;;;6250027;28;20232;-63
2022/07/08 08:35:37;;;;;;;0.80;0.30;;;26.10;66.60;;;;;;6253398;28;20228;-65
2022/07/08 08:38:40;;;;;;;1.20;0.60;;;26.00;67.80;;;;;;6252681;28;20314;-63
2022/07/08 08:41:43;;;;;;;0.60;0.30;;;25.80;65.70;;;;;;6252982;28;20582;-63
2022/07/08 08:44:49;;;;;;;1.03;0.50;;;25.60;66.10;;;;;;6257445;28;20227;-64
2022/07/08 08:47:54;;;;;;;1.27;0.30;;;25.70;65.80;;;;;;6273264;28;20234;-63
2022/07/08 08:50:58;;;;;;;0.97;0.43;;;25.60;65.50;;;;;;6254670;28;20247;-64
2022/07/08 08:54:05;;;;;;;1.43;0.40;;;25.70;63.60;;;;;;6276120;28;20229;-64
2022/07/08 08:57:09;;;;;;;0.60;0.30;;;25.50;64.80;;;;;;6250210;28;20247;-64
2022/07/08 09:00:12;;;;;;;0.97;0.50;;;25.60;63.80;;;;;;6228155;28;20224;-64
2022/07/08 09:03:17;;;;;;;0.70;0.40;;;25.70;63.90;;;;;;6246066;28;20303;-64
2022/07/08 09:06:20;;;;;;;0.80;0.50;;;25.50;63.40;;;;;;6252655;28;20239;-64
2022/07/08 09:09:23;;;;;;;2.17;0.43;;;25.50;63.00;;;;;;6252135;28;20232;-63
2022/07/08 09:12:27;;;;;;;0.83;0.50;;;25.60;61.60;;;;;;6252130;28;20245;-63
2022/07/08 09:15:31;;;;;;;0.90;0.70;;;25.70;61.30;;;;;;6252229;28;20286;-63
2022/07/08 09:18:38;;;;;;;0.80;0.63;;;25.70;60.70;;;;;;6266475;28;20571;-63
2022/07/08 09:21:52;;;;;;;1.10;0.70;;;25.30;59.80;;;;;;6277056;28;20239;-63
2022/07/08 09:24:57;;;;;;;0.87;0.60;;;25.10;60.30;;;;;;6277080;28;20231;-64
2022/07/08 09:28:00;;;;;;;2.70;0.97;;;25.10;59.60;;;;;;6276724;28;20231;-63
2022/07/08 09:31:06;;;;;;;0.90;0.60;;;25.20;60.00;;;;;;6261733;28;20223;-64
2022/07/08 09:34:16;;;;;;;0.97;0.80;;;25.40;60.80;;;;;;6252405;28;20240;-64
2022/07/08 09:37:20;;;;;;;2.20;0.70;;;25.80;59.80;;;;;;6231825;28;20224;-64
2022/07/08 09:40:24;;;;;;;2.00;1.00;;;26.30;58.20;;;;;;6227723;28;20562;-64
2022/07/08 09:43:28;;;;;;;0.80;0.80;;;26.10;56.60;;;;;;6240376;28;20565;-63
2022/07/08 09:46:37;;;;;;;1.17;0.80;;;26.10;57.30;;;;;;6230091;28;20283;-64
2022/07/08 09:49:43;;;;;;;3.13;0.93;;;26.10;56.10;;;;;;6217999;28;20653;-63
2022/07/08 09:52:46;;;;;;;2.20;0.87;;;25.90;57.10;;;;;;6217798;28;20239;-62
2022/07/08 09:55:52;;;;;;;1.63;1.10;;;25.70;57.40;;;;;;6211640;28;20229;-63
2022/07/08 09:58:56;;;;;;;1.57;0.77;;;25.50;56.00;;;;;;6202845;28;20279;-63
2022/07/08 10:01:59;;;;;;;7.00;0.90;;;25.30;56.90;;;;;;6225824;28;20300;-63
2022/07/08 10:05:05;;;;;;;3.53;0.80;;;25.20;55.90;;;;;;6220699;28;20201;-62
2022/07/08 10:08:08;;;;;;;1.63;0.77;;;25.30;57.10;;;;;;6210377;28;20678;-63
2022/07/08 10:11:13;;;;;;;2.30;0.90;;;25.40;56.50;;;;;;6215846;28;20213;-62
2022/07/08 10:14:19;;;;;;;1.13;0.80;;;25.50;55.20;;;;;;6221649;28;20224;-63
2022/07/08 10:17:25;;;;;;;2.30;1.30;;;25.40;54.40;;;;;;6234660;28;20243;-61
2022/07/08 10:20:32;;;;;;;1.63;0.90;;;25.40;53.70;;;;;;6210457;28;20228;-63
2022/07/08 10:23:39;;;;;;;1.30;0.80;;;25.40;54.90;;;;;;6215174;28;20234;-63
2022/07/08 10:26:42;;;;;;;1.43;1.00;;;25.30;55.00;;;;;;6222037;28;20229;-62
2022/07/08 10:29:45;;;;;;;1.27;0.83;;;25.10;53.10;;;;;;6225634;28;20658;-63
2022/07/08 10:32:49;;;;;;;1.67;1.13;;;25.00;53.50;;;;;;6238136;28;20235;-63
2022/07/08 10:36:06;;;;;;;2.53;1.00;;;25.00;54.70;;;;;;6218439;28;20243;-65
2022/07/08 10:39:11;;;;;;;1.20;1.00;;;25.00;54.90;;;;;;6202835;28;20237;-62
2022/07/08 10:42:20;;;;;;;2.00;1.17;;;25.10;54.10;;;;;;6202307;28;20580;-62
2022/07/08 10:45:25;;;;;;;1.20;0.90;;;25.20;54.00;;;;;;6213913;28;20239;-62
2022/07/08 10:48:28;;;;;;;1.43;1.30;;;25.40;53.10;;;;;;6213236;28;20231;-62
2022/07/08 10:51:48;;;;;;;1.90;1.23;;;25.40;52.30;;;;;;6201873;28;20306;-62
2022/07/08 10:55:09;;;;;;;2.83;1.53;;;25.30;52.20;;;;;;6218642;28;20945;-62
2022/07/08 10:58:12;;;;;;;1.47;1.00;;;25.20;52.50;;;;;;6237570;28;20231;-62
2022/07/08 11:01:24;;;;;;;1.20;1.10;;;25.30;51.50;;;;;;6216592;28;20252;-62
2022/07/08 11:04:31;;;;;;;2.37;0.87;;;25.40;52.00;;;;;;6220040;28;20307;-62
2022/07/08 11:07:36;;;;;;;1.10;0.93;;;25.20;51.90;;;;;;6213415;28;20222;-62
2022/07/08 11:10:40;;;;;;;2.87;1.23;;;25.30;52.90;;;;;;6217569;28;20579;-62
2022/07/08 11:13:45;;;;;;;1.77;1.00;;;25.30;52.80;;;;;;6237598;28;20228;-62
2022/07/08 11:16:48;;;;;;;3.47;1.40;;;25.40;52.40;;;;;;6209858;28;20224;-62
2022/07/08 11:19:53;;;;;;;2.33;1.20;;;25.40;52.30;;;;;;6210167;28;20237;-63
2022/07/08 11:22:58;;;;;;;4.33;1.33;;;25.30;51.50;;;;;;6216674;28;20233;-62
2022/07/08 11:26:03;;;;;;;1.00;0.87;;;25.10;52.60;;;;;;6200494;28;20644;-62
2022/07/08 11:29:16;;;;;;;1.43;1.27;;;24.90;52.20;;;;;;6210354;28;20231;-61
2022/07/08 11:32:20;;;;;;;1.60;1.00;;;24.70;52.50;;;;;;6267477;28;20234;-62
2022/07/08 11:35:24;;;;;;;2.07;1.10;;;24.50;52.70;;;;;;6259441;28;20639;-63
2022/07/08 11:38:47;;;;;;;1.00;0.80;;;24.40;54.00;;;;;;6222476;28;20233;-63
2022/07/08 11:41:51;;;;;;;1.30;1.10;;;24.30;52.90;;;;;;6214886;28;20370;-62
2022/07/08 11:44:54;;;;;;;1.27;1.07;;;24.30;53.60;;;;;;6208196;28;20224;-60
2022/07/08 11:48:05;;;;;;;2.17;1.10;;;24.30;53.10;;;;;;6218624;28;20228;-62
2022/07/08 11:51:09;;;;;;;1.47;0.90;;;24.40;53.50;;;;;;6216028;28;20222;-62
2022/07/08 11:54:13;;;;;;;3.63;1.43;;;24.40;53.10;;;;;;6224503;28;20248;-61
2022/07/08 11:57:19;;;;;;;1.00;0.90;;;24.30;53.10;;;;;;6198563;28;20232;-61
2022/07/08 12:00:27;;;;;;;4.63;1.10;;;24.30;53.50;;;;;;6208195;28;20299;-62
2022/07/08 12:03:33;;;;;;;3.03;1.07;;;24.40;53.60;;;;;;6219164;28;20240;-62
2022/07/08 12:06:47;;;;;;;2.07;1.30;;;24.50;53.30;;;;;;6221077;28;20230;-62
2022/07/08 12:09:56;;;;;;;1.33;1.10;;;24.50;53.50;;;;;;6218067;28;20241;-63
2022/07/08 12:12:59;;;;;;;1.30;0.90;;;24.50;53.10;;;;;;6213444;28;20316;-64
2022/07/08 12:16:03;;;;;;;2.80;1.47;;;24.50;53.20;;;;;;6229630;28;20239;-62
2022/07/08 12:19:07;;;;;;;2.03;1.43;;;24.60;53.90;;;;;;6213030;28;20283;-62
2022/07/08 12:22:13;;;;;;;1.70;1.43;;;24.70;52.40;;;;;;6213544;28;20241;-62
2022/07/08 12:25:19;;;;;;;2.40;1.60;;;24.60;52.40;;;;;;6204411;28;20240;-62
2022/07/08 12:28:23;;;;;;;1.97;1.30;;;24.80;52.70;;;;;;6204142;28;20241;-62
2022/07/08 12:31:34;;;;;;;1.60;1.50;;;24.80;52.60;;;;;;6216052;28;20248;-63
2022/07/08 12:34:38;;;;;;;1.53;1.43;;;24.70;52.00;;;;;;6212049;28;20562;-63
2022/07/08 12:37:42;;;;;;;2.20;1.30;;;24.70;51.80;;;;;;6204486;28;20222;-63
2022/07/08 12:40:47;;;;;;;1.47;1.07;;;24.60;52.50;;;;;;6203642;28;20234;-63
2022/07/08 12:43:50;;;;;;;2.00;1.30;;;24.60;52.00;;;;;;6204254;28;20230;-63
2022/07/08 12:46:53;;;;;;;3.03;1.20;;;24.60;51.70;;;;;;6203944;28;20244;-64
2022/07/08 12:49:59;;;;;;;2.70;1.20;;;24.60;52.20;;;;;;6230675;28;20232;-63
2022/07/08 12:53:04;;;;;;;2.90;1.50;;;24.60;51.70;;;;;;6223151;28;20202;-63
2022/07/08 12:56:09;;;;;;;3.90;1.90;;;24.60;51.50;;;;;;6221594;28;20213;-63
2022/07/08 12:59:12;;;;;;;1.90;1.20;;;24.40;51.20;;;;;;6232683;28;20671;-62
2022/07/08 13:02:15;;;;;;;1.70;1.20;;;24.30;51.50;;;;;;6215690;28;20233;-62
2022/07/08 13:05:18;;;;;;;2.93;1.10;;;24.30;51.50;;;;;;6225416;28;20229;-62
2022/07/08 13:08:22;;;;;;;2.70;1.30;;;24.20;52.00;;;;;;6226540;28;20691;-62
2022/07/08 13:11:26;;;;;;;2.80;1.23;;;24.20;51.80;;;;;;6227323;28;20343;-62
2022/07/08 13:14:30;;;;;;;2.73;1.47;;;24.10;51.70;;;;;;6231485;28;20255;-62
2022/07/08 13:17:33;;;;;;;1.10;1.00;;;24.10;51.70;;;;;;6225828;28;20225;-63
2022/07/08 13:20:36;;;;;;;2.60;1.10;;;24.00;51.20;;;;;;6208563;28;20315;-63
2022/07/08 13:23:39;;;;;;;2.10;1.40;;;24.00;51.60;;;;;;6207456;28;20239;-64
2022/07/08 13:26:44;;;;;;;2.80;1.37;;;23.90;51.20;;;;;;6209612;28;20224;-63
2022/07/08 13:29:47;;;;;;;2.17;1.20;;;23.90;51.70;;;;;;6214911;28;20339;-64
2022/07/08 13:32:51;;;;;;;1.90;1.53;;;23.90;51.30;;;;;;6231174;28;20221;-61
2022/07/08 13:35:54;;;;;;;2.87;1.37;;;23.90;51.10;;;;;;6224181;28;20229;-62
2022/07/08 13:38:57;;;;;;;3.63;1.10;;;23.90;52.00;;;;;;6220181;28;20244;-62
2022/07/08 13:42:02;;;;;;;2.17;1.40;;;23.90;51.70;;;;;;6224237;28;20239;-62
2022/07/08 13:45:06;;;;;;;2.77;1.43;;;24.00;51.70;;;;;;6221240;28;20228;-62
2022/07/08 13:48:09;;;;;;;3.53;1.43;;;24.00;51.30;;;;;;6220179;28;20225;-62
2022/07/08 13:51:12;;;;;;;1.00;0.80;;;24.00;51.20;;;;;;6212333;28;20235;-62
2022/07/08 13:54:15;;;;;;;3.10;1.13;;;24.10;50.80;;;;;;6215289;28;20225;-61
2022/07/08 13:57:20;;;;;;;1.30;1.13;;;24.00;49.90;;;;;;6224840;28;20670;-62
2022/07/08 14:00:23;;;;;;;1.43;1.17;;;24.00;50.80;;;;;;6223950;28;20667;-62
2022/07/08 14:03:26;;;;;;;1.17;0.80;;;24.00;50.80;;;;;;6220309;28;20682;-63
2022/07/08 14:06:29;;;;;;;3.10;1.30;;;24.00;50.70;;;;;;6223090;28;20298;-63
2022/07/08 14:09:32;;;;;;;1.10;0.87;;;24.00;51.00;;;;;;6217741;28;20707;-62
2022/07/08 14:12:37;;;;;;;4.37;1.20;;;24.00;51.40;;;;;;6219030;28;20229;-62
2022/07/08 14:15:40;;;;;;;4.40;1.80;;;24.10;51.00;;;;;;6216974;28;20229;-62
2022/07/08 14:18:44;;;;;;;1.87;1.13;;;24.10;50.50;;;;;;6206999;28;20244;-62
2022/07/08 14:21:48;;;;;;;1.50;1.10;;;24.10;51.00;;;;;;6205448;28;20264;-62
2022/07/08 14:24:51;;;;;;;3.07;1.37;;;24.10;51.10;;;;;;6208047;28;20225;-62
2022/07/08 14:27:56;;;;;;;1.60;1.00;;;24.10;51.00;;;;;;6238788;28;20239;-62
2022/07/08 14:30:59;;;;;;;4.30;1.30;;;24.00;50.50;;;;;;6233896;28;20241;-61
2022/07/08 14:34:02;;;;;;;1.87;1.20;;;24.10;50.10;;;;;;6222241;28;20697;-62
2022/07/08 14:37:05;;;;;;;1.97;1.47;;;24.10;50.60;;;;;;6218918;28;20229;-61
2022/07/08 14:40:10;;;;;;;2.40;0.90;;;24.10;51.20;;;;;;6222415;28;20229;-62
2022/07/08 14:43:14;;;;;;;1.40;0.80;;;24.20;50.90;;;;;;6237973;28;20747;-62
2022/07/08 14:46:19;;;;;;;2.60;1.20;;;24.20;50.10;;;;;;6227614;28;20225;-62
2022/07/08 14:49:24;;;;;;;1.67;1.00;;;24.20;50.70;;;;;;6207606;28;20237;-63
2022/07/08 14:52:27;;;;;;;2.53;1.00;;;24.10;50.10;;;;;;6216817;28;20225;-62
2022/07/08 14:55:30;;;;;;;3.53;1.33;;;24.10;50.70;;;;;;6207533;28;20225;-62
2022/07/08 14:58:35;;;;;;;1.30;1.00;;;24.00;50.10;;;;;;6231615;28;20239;-62
2022/07/08 15:01:38;;;;;;;3.10;1.20;;;24.00;51.30;;;;;;6202916;28;20229;-62
2022/07/08 15:04:41;;;;;;;2.43;1.63;;;24.10;50.60;;;;;;6206316;28;20229;-63
2022/07/08 15:07:44;;;;;;;1.33;1.10;;;24.00;50.20;;;;;;6222236;28;20225;-63
2022/07/08 15:10:48;;;;;;;1.97;1.67;;;24.10;51.00;;;;;;6223346;28;20233;-64
2022/07/08 15:13:52;;;;;;;2.00;1.13;;;24.10;50.40;;;;;;6222567;28;20278;-64
2022/07/08 15:16:55;;;;;;;1.50;1.00;;;24.10;50.50;;;;;;6222502;28;20673;-63
2022/07/08 15:19:59;;;;;;;2.00;1.50;;;24.10;50.50;;;;;;6222773;28;20567;-64
2022/07/08 15:23:02;;;;;;;2.00;1.27;;;24.00;50.80;;;;;;6225096;28;20205;-63
2022/07/08 15:26:09;;;;;;;2.97;1.07;;;24.10;50.80;;;;;;6224974;28;20611;-63
2022/07/08 15:29:14;;;;;;;1.80;1.20;;;24.00;50.10;;;;;;6224608;28;20363;-63
2022/07/08 15:32:17;;;;;;;2.50;1.30;;;23.90;50.70;;;;;;6227499;28;20555;-63
2022/07/08 15:35:20;;;;;;;1.33;1.13;;;23.90;50.80;;;;;;6248699;28;20307;-63
2022/07/08 15:38:23;;;;;;;2.43;1.40;;;23.90;50.80;;;;;;6249590;28;20563;-63
2022/07/08 15:41:26;;;;;;;2.27;1.40;;;24.00;50.50;;;;;;6247408;28;20328;-63
2022/07/08 15:44:31;;;;;;;2.50;1.40;;;23.90;50.40;;;;;;6251710;28;20258;-63
2022/07/08 15:47:42;;;;;;;2.80;1.57;;;23.90;50.30;;;;;;6251591;28;20732;-63
2022/07/08 15:50:46;;;;;;;3.03;1.27;;;23.80;50.40;;;;;;6254036;28;20231;-63
2022/07/08 15:53:49;;;;;;;3.83;1.30;;;23.90;50.60;;;;;;6253628;28;20311;-63
2022/07/08 15:56:52;;;;;;;1.83;0.90;;;23.70;51.30;;;;;;6253053;28;20298;-63
2022/07/08 15:59:56;;;;;;;2.23;1.10;;;23.80;51.20;;;;;;6253540;28;20543;-63